sensor_id;sensor_type;location;lat;lon;timestamp;pressure;altitude;pressure_sealevel;temperature;humidity
56400;BME280;42298;53.638;9.876;2023-05-22T00:01:49;101546.16;;;20.78;62.60
56400;BME280;42298;53.638;9.876;2023-05-22T00:04:15;101541.81;;;20.65;62.58
56400;BME280;42298;53.638;9.876;2023-05-22T00:06:45;101534.13;;;20.62;62.63
56400;BME280;42298;53.638;9.876;2023-05-22T00:09:11;101541.19;;;20.71;62.64
56400;BME280;42298;53.638;9.876;2023-05-22T00:11:36;101540.81;;;20.73;62.66
56400;BME280;42298;53.638;9.876;2023-05-22T00:14:03;101538.03;;;20.73;62.87
56400;BME280;42298;53.638;9.876;2023-05-22T00:16:29;101541.09;;;20.68;62.41
56400;BME280;42298;53.638;9.876;2023-05-22T00:18:54;101529.34;;;20.62;62.48
56400;BME280;42298;53.638;9.876;2023-05-22T00:21:21;101534.13;;;20.62;62.77
56400;BME280;42298;53.638;9.876;2023-05-22T00:23:46;101537.72;;;20.62;62.75
56400;BME280;42298;53.638;9.876;2023-05-22T00:26:14;101539.03;;;20.65;62.73
56400;BME280;42298;53.638;9.876;2023-05-22T00:28:42;101532.84;;;20.59;62.78
56400;BME280;42298;53.638;9.876;2023-05-22T00:31:08;101536.09;;;20.61;62.64
56400;BME280;42298;53.638;9.876;2023-05-22T00:33:33;101533.56;;;20.56;62.75
56400;BME280;42298;53.638;9.876;2023-05-22T00:35:59;101532.56;;;20.49;62.85
56400;BME280;42298;53.638;9.876;2023-05-22T00:38:32;101538.25;;;20.52;62.80
56400;BME280;42298;53.638;9.876;2023-05-22T00:41:00;101533.00;;;20.51;62.96
56400;BME280;42298;53.638;9.876;2023-05-22T00:43:26;101530.75;;;20.41;63.11
56400;BME280;42298;53.638;9.876;2023-05-22T00:45:52;101526.22;;;20.36;63.21
56400;BME280;42298;53.638;9.876;2023-05-22T00:48:19;101529.00;;;20.36;63.25
56400;BME280;42298;53.638;9.876;2023-05-22T00:50:45;101529.72;;;20.33;63.15
56400;BME280;42298;53.638;9.876;2023-05-22T00:53:11;101532.53;;;20.33;63.34
56400;BME280;42298;53.638;9.876;2023-05-22T00:55:37;101527.16;;;20.28;63.46
56400;BME280;42298;53.638;9.876;2023-05-22T00:58:04;101533.69;;;20.32;63.22
56400;BME280;42298;53.638;9.876;2023-05-22T01:00:37;101531.25;;;20.31;63.36
56400;BME280;42298;53.638;9.876;2023-05-22T01:03:04;101522.22;;;20.22;63.50
56400;BME280;42298;53.638;9.876;2023-05-22T01:05:34;101518.03;;;20.16;63.41
56400;BME280;42298;53.638;9.876;2023-05-22T01:08:00;101521.41;;;20.09;63.54
56400;BME280;42298;53.638;9.876;2023-05-22T01:10:26;101525.81;;;20.10;63.50
56400;BME280;42298;53.638;9.876;2023-05-22T01:18:59;101516.75;;;20.01;64.10
56400;BME280;42298;53.638;9.876;2023-05-22T01:21:36;101513.63;;;19.91;63.95
56400;BME280;42298;53.638;9.876;2023-05-22T01:26:54;101515.63;;;19.90;64.24
56400;BME280;42298;53.638;9.876;2023-05-22T01:29:34;101508.66;;;19.84;63.94
56400;BME280;42298;53.638;9.876;2023-05-22T01:32:07;101514.50;;;19.79;64.32
56400;BME280;42298;53.638;9.876;2023-05-22T01:34:34;101510.78;;;19.75;64.21
56400;BME280;42298;53.638;9.876;2023-05-22T01:37:01;101503.34;;;19.67;64.40
56400;BME280;42298;53.638;9.876;2023-05-22T01:39:28;101497.19;;;19.62;64.50
56400;BME280;42298;53.638;9.876;2023-05-22T01:41:54;101513.34;;;19.68;64.56
56400;BME280;42298;53.638;9.876;2023-05-22T01:44:19;101502.41;;;19.63;64.32
56400;BME280;42298;53.638;9.876;2023-05-22T01:46:45;101501.47;;;19.59;64.49
56400;BME280;42298;53.638;9.876;2023-05-22T01:49:10;101506.63;;;19.57;64.37
56400;BME280;42298;53.638;9.876;2023-05-22T01:51:51;101513.34;;;19.56;64.50
56400;BME280;42298;53.638;9.876;2023-05-22T01:54:31;101517.78;;;19.57;64.62
56400;BME280;42298;53.638;9.876;2023-05-22T01:57:06;101509.28;;;19.54;64.50
56400;BME280;42298;53.638;9.876;2023-05-22T01:59:48;101510.91;;;19.55;64.41
56400;BME280;42298;53.638;9.876;2023-05-22T02:02:23;101515.22;;;19.52;64.38
56400;BME280;42298;53.638;9.876;2023-05-22T02:04:58;101501.28;;;19.40;64.65
56400;BME280;42298;53.638;9.876;2023-05-22T02:07:24;101505.38;;;19.43;64.55
56400;BME280;42298;53.638;9.876;2023-05-22T02:09:51;101493.84;;;19.32;64.77
56400;BME280;42298;53.638;9.876;2023-05-22T02:12:18;101508.50;;;19.41;64.96
56400;BME280;42298;53.638;9.876;2023-05-22T02:14:44;101503.63;;;19.38;64.86
56400;BME280;42298;53.638;9.876;2023-05-22T02:17:10;101482.56;;;19.29;64.59
56400;BME280;42298;53.638;9.876;2023-05-22T02:19:36;101495.00;;;19.31;64.50
56400;BME280;42298;53.638;9.876;2023-05-22T02:22:02;101494.53;;;19.29;64.64
56400;BME280;42298;53.638;9.876;2023-05-22T02:24:28;101488.50;;;19.27;64.79
56400;BME280;42298;53.638;9.876;2023-05-22T02:26:54;101484.75;;;19.23;64.82
56400;BME280;42298;53.638;9.876;2023-05-22T02:29:20;101480.66;;;19.21;64.86
56400;BME280;42298;53.638;9.876;2023-05-22T02:31:46;101479.84;;;19.20;64.76
56400;BME280;42298;53.638;9.876;2023-05-22T02:34:12;101479.38;;;19.18;64.74
56400;BME280;42298;53.638;9.876;2023-05-22T02:36:38;101490.19;;;19.20;64.63
56400;BME280;42298;53.638;9.876;2023-05-22T02:39:04;101476.72;;;19.10;64.89
56400;BME280;42298;53.638;9.876;2023-05-22T02:41:29;101480.78;;;19.12;64.92
56400;BME280;42298;53.638;9.876;2023-05-22T02:43:55;101478.00;;;19.12;65.15
56400;BME280;42298;53.638;9.876;2023-05-22T02:46:20;101478.13;;;19.04;65.05
56400;BME280;42298;53.638;9.876;2023-05-22T02:48:46;101471.91;;;18.98;65.04
56400;BME280;42298;53.638;9.876;2023-05-22T02:51:11;101459.84;;;18.94;64.97
56400;BME280;42298;53.638;9.876;2023-05-22T02:53:39;101470.31;;;18.97;65.14
56400;BME280;42298;53.638;9.876;2023-05-22T02:56:08;101479.50;;;18.98;64.89
56400;BME280;42298;53.638;9.876;2023-05-22T02:58:36;101454.94;;;18.91;64.83
56400;BME280;42298;53.638;9.876;2023-05-22T03:01:01;101472.63;;;18.95;65.05
56400;BME280;42298;53.638;9.876;2023-05-22T03:03:27;101454.94;;;18.91;64.86
56400;BME280;42298;53.638;9.876;2023-05-22T03:05:53;101471.22;;;19.01;64.82
56400;BME280;42298;53.638;9.876;2023-05-22T03:08:22;101463.69;;;19.02;64.66
56400;BME280;42298;53.638;9.876;2023-05-22T03:10:47;101467.28;;;19.02;64.61
56400;BME280;42298;53.638;9.876;2023-05-22T03:13:13;101460.31;;;18.96;64.56
56400;BME280;42298;53.638;9.876;2023-05-22T03:15:38;101445.88;;;18.94;64.24
56400;BME280;42298;53.638;9.876;2023-05-22T03:18:04;101449.59;;;18.98;64.29
56400;BME280;42298;53.638;9.876;2023-05-22T03:20:30;101449.16;;;18.96;64.18
56400;BME280;42298;53.638;9.876;2023-05-22T03:22:55;101460.06;;;19.01;63.88
56400;BME280;42298;53.638;9.876;2023-05-22T03:25:20;101460.41;;;18.99;64.01
56400;BME280;42298;53.638;9.876;2023-05-22T03:27:46;101452.97;;;19.04;64.13
56400;BME280;42298;53.638;9.876;2023-05-22T03:30:11;101451.25;;;19.11;63.83
56400;BME280;42298;53.638;9.876;2023-05-22T03:32:38;101462.28;;;19.20;63.52
56400;BME280;42298;53.638;9.876;2023-05-22T03:35:04;101447.97;;;19.21;63.40
56400;BME280;42298;53.638;9.876;2023-05-22T03:37:30;101444.59;;;19.16;63.47
56400;BME280;42298;53.638;9.876;2023-05-22T03:39:55;101450.28;;;19.19;63.29
56400;BME280;42298;53.638;9.876;2023-05-22T03:42:20;101439.09;;;19.19;63.09
56400;BME280;42298;53.638;9.876;2023-05-22T03:44:47;101447.06;;;19.29;63.03
56400;BME280;42298;53.638;9.876;2023-05-22T03:47:14;101437.97;;;19.32;62.91
56400;BME280;42298;53.638;9.876;2023-05-22T03:49:39;101442.75;;;19.32;62.80
56400;BME280;42298;53.638;9.876;2023-05-22T03:52:08;101435.28;;;19.36;62.50
56400;BME280;42298;53.638;9.876;2023-05-22T03:54:35;101437.28;;;19.35;62.64
56400;BME280;42298;53.638;9.876;2023-05-22T03:57:00;101437.72;;;19.37;62.44
56400;BME280;42298;53.638;9.876;2023-05-22T03:59:25;101444.13;;;19.38;62.54
56400;BME280;42298;53.638;9.876;2023-05-22T04:01:51;101453.53;;;19.45;62.14
56400;BME280;42298;53.638;9.876;2023-05-22T04:04:16;101439.94;;;19.44;61.85
56400;BME280;42298;53.638;9.876;2023-05-22T04:06:42;101447.72;;;19.50;61.97
56400;BME280;42298;53.638;9.876;2023-05-22T04:09:09;101442.56;;;19.52;61.83
56400;BME280;42298;53.638;9.876;2023-05-22T04:11:38;101441.06;;;19.55;61.52
56400;BME280;42298;53.638;9.876;2023-05-22T04:14:07;101446.16;;;19.65;61.51
56400;BME280;42298;53.638;9.876;2023-05-22T04:16:32;101431.13;;;19.69;61.03
56400;BME280;42298;53.638;9.876;2023-05-22T04:18:58;101438.09;;;19.75;60.66
56400;BME280;42298;53.638;9.876;2023-05-22T04:21:26;101432.72;;;19.82;60.50
56400;BME280;42298;53.638;9.876;2023-05-22T04:23:52;101434.38;;;19.99;60.51
56400;BME280;42298;53.638;9.876;2023-05-22T04:26:17;101427.22;;;20.13;59.67
56400;BME280;42298;53.638;9.876;2023-05-22T04:28:44;101433.41;;;20.34;59.70
56400;BME280;42298;53.638;9.876;2023-05-22T04:31:12;101438.31;;;20.53;59.05
56400;BME280;42298;53.638;9.876;2023-05-22T04:33:37;101429.22;;;20.56;58.45
56400;BME280;42298;53.638;9.876;2023-05-22T04:36:04;101431.56;;;20.69;57.44
56400;BME280;42298;53.638;9.876;2023-05-22T04:38:30;101429.81;;;20.80;57.49
56400;BME280;42298;53.638;9.876;2023-05-22T04:41:04;101430.69;;;20.97;57.66
56400;BME280;42298;53.638;9.876;2023-05-22T04:43:33;101439.66;;;21.21;56.26
56400;BME280;42298;53.638;9.876;2023-05-22T04:45:58;101428.72;;;21.32;55.83
56400;BME280;42298;53.638;9.876;2023-05-22T04:48:23;101428.22;;;21.45;55.27
56400;BME280;42298;53.638;9.876;2023-05-22T04:50:49;101443.06;;;21.65;54.64
56400;BME280;42298;53.638;9.876;2023-05-22T04:53:17;101437.59;;;21.72;54.38
56400;BME280;42298;53.638;9.876;2023-05-22T04:55:43;101447.19;;;21.86;54.22
56400;BME280;42298;53.638;9.876;2023-05-22T04:58:10;101437.44;;;21.80;53.95
56400;BME280;42298;53.638;9.876;2023-05-22T05:00:35;101445.50;;;21.82;54.06
56400;BME280;42298;53.638;9.876;2023-05-22T05:03:01;101443.34;;;21.75;53.40
56400;BME280;42298;53.638;9.876;2023-05-22T05:05:26;101431.50;;;21.66;54.15
56400;BME280;42298;53.638;9.876;2023-05-22T05:07:51;101430.47;;;21.55;53.88
56400;BME280;42298;53.638;9.876;2023-05-22T05:10:21;101430.75;;;21.50;53.83
56400;BME280;42298;53.638;9.876;2023-05-22T05:12:46;101434.72;;;21.49;54.06
56400;BME280;42298;53.638;9.876;2023-05-22T05:15:12;101419.00;;;21.45;54.23
56400;BME280;42298;53.638;9.876;2023-05-22T05:17:37;101432.56;;;21.43;53.64
56400;BME280;42298;53.638;9.876;2023-05-22T05:20:03;101423.34;;;21.42;54.02
56400;BME280;42298;53.638;9.876;2023-05-22T05:22:31;101432.56;;;21.43;54.17
56400;BME280;42298;53.638;9.876;2023-05-22T05:24:58;101427.94;;;21.50;53.67
56400;BME280;42298;53.638;9.876;2023-05-22T05:27:23;101432.28;;;21.48;53.53
56400;BME280;42298;53.638;9.876;2023-05-22T05:29:48;101430.53;;;21.59;53.52
56400;BME280;42298;53.638;9.876;2023-05-22T05:32:14;101429.34;;;21.60;53.06
56400;BME280;42298;53.638;9.876;2023-05-22T05:34:40;101431.56;;;21.70;53.24
56400;BME280;42298;53.638;9.876;2023-05-22T05:37:05;101425.69;;;21.75;52.92
56400;BME280;42298;53.638;9.876;2023-05-22T05:39:33;101425.25;;;21.92;52.85
56400;BME280;42298;53.638;9.876;2023-05-22T05:41:58;101424.66;;;22.02;52.40
56400;BME280;42298;53.638;9.876;2023-05-22T05:44:24;101419.63;;;22.11;51.93
56400;BME280;42298;53.638;9.876;2023-05-22T05:46:49;101421.31;;;22.34;51.77
56400;BME280;42298;53.638;9.876;2023-05-22T05:49:15;101407.31;;;22.57;50.83
56400;BME280;42298;53.638;9.876;2023-05-22T05:51:40;101410.16;;;22.83;51.04
56400;BME280;42298;53.638;9.876;2023-05-22T05:54:05;101410.00;;;22.99;50.17
56400;BME280;42298;53.638;9.876;2023-05-22T05:56:31;101410.47;;;23.27;49.68
56400;BME280;42298;53.638;9.876;2023-05-22T05:58:57;101410.84;;;23.51;48.79
56400;BME280;42298;53.638;9.876;2023-05-22T06:01:25;101411.75;;;23.59;48.03
56400;BME280;42298;53.638;9.876;2023-05-22T06:03:51;101415.69;;;23.54;47.49
56400;BME280;42298;53.638;9.876;2023-05-22T06:06:16;101415.47;;;23.70;47.29
56400;BME280;42298;53.638;9.876;2023-05-22T06:08:44;101416.56;;;23.62;46.90
56400;BME280;42298;53.638;9.876;2023-05-22T06:11:10;101419.88;;;23.67;47.17
56400;BME280;42298;53.638;9.876;2023-05-22T06:13:35;101420.56;;;23.57;47.35
56400;BME280;42298;53.638;9.876;2023-05-22T06:16:00;101406.38;;;23.50;46.68
56400;BME280;42298;53.638;9.876;2023-05-22T06:18:26;101399.53;;;23.48;47.04
56400;BME280;42298;53.638;9.876;2023-05-22T06:20:51;101399.06;;;23.42;46.95
56400;BME280;42298;53.638;9.876;2023-05-22T06:23:17;101415.88;;;23.39;47.25
56400;BME280;42298;53.638;9.876;2023-05-22T06:25:42;101413.44;;;23.37;47.52
56400;BME280;42298;53.638;9.876;2023-05-22T06:28:08;101415.78;;;23.32;47.21
56400;BME280;42298;53.638;9.876;2023-05-22T06:30:34;101407.88;;;23.41;47.51
56400;BME280;42298;53.638;9.876;2023-05-22T06:33:00;101418.81;;;23.49;46.82
56400;BME280;42298;53.638;9.876;2023-05-22T06:35:25;101406.81;;;23.52;47.03
56400;BME280;42298;53.638;9.876;2023-05-22T06:37:50;101411.63;;;23.52;46.94
56400;BME280;42298;53.638;9.876;2023-05-22T06:40:16;101423.03;;;23.62;46.76
56400;BME280;42298;53.638;9.876;2023-05-22T06:42:43;101419.34;;;23.58;46.54
56400;BME280;42298;53.638;9.876;2023-05-22T06:45:09;101417.38;;;23.59;46.49
56400;BME280;42298;53.638;9.876;2023-05-22T06:47:34;101426.28;;;23.64;45.94
56400;BME280;42298;53.638;9.876;2023-05-22T06:50:00;101421.56;;;23.72;46.47
56400;BME280;42298;53.638;9.876;2023-05-22T06:52:26;101429.38;;;23.85;46.60
56400;BME280;42298;53.638;9.876;2023-05-22T06:54:51;101424.56;;;23.89;46.47
56400;BME280;42298;53.638;9.876;2023-05-22T06:57:16;101436.94;;;24.11;46.07
56400;BME280;42298;53.638;9.876;2023-05-22T06:59:42;101422.22;;;24.24;45.41
56400;BME280;42298;53.638;9.876;2023-05-22T07:02:07;101436.91;;;24.44;45.79
56400;BME280;42298;53.638;9.876;2023-05-22T07:04:32;101433.88;;;24.63;45.34
56400;BME280;42298;53.638;9.876;2023-05-22T07:06:58;101426.44;;;24.81;44.77
56400;BME280;42298;53.638;9.876;2023-05-22T07:09:23;101436.22;;;24.98;44.41
56400;BME280;42298;53.638;9.876;2023-05-22T07:11:49;101430.34;;;25.20;43.56
56400;BME280;42298;53.638;9.876;2023-05-22T07:14:14;101425.28;;;25.40;42.75
56400;BME280;42298;53.638;9.876;2023-05-22T07:16:40;101439.59;;;25.78;42.15
56400;BME280;42298;53.638;9.876;2023-05-22T07:19:05;101427.69;;;26.20;42.68
56400;BME280;42298;53.638;9.876;2023-05-22T07:21:36;101436.69;;;26.64;41.27
56400;BME280;42298;53.638;9.876;2023-05-22T07:24:02;101439.13;;;26.90;39.61
56400;BME280;42298;53.638;9.876;2023-05-22T07:26:34;101427.00;;;26.79;39.87
56400;BME280;42298;53.638;9.876;2023-05-22T07:29:03;101420.13;;;27.08;38.88
56400;BME280;42298;53.638;9.876;2023-05-22T07:31:30;101422.13;;;27.43;38.46
56400;BME280;42298;53.638;9.876;2023-05-22T07:33:58;101428.53;;;27.61;38.04
56400;BME280;42298;53.638;9.876;2023-05-22T07:36:24;101432.13;;;27.79;37.56
56400;BME280;42298;53.638;9.876;2023-05-22T07:38:50;101411.38;;;28.10;37.26
56400;BME280;42298;53.638;9.876;2023-05-22T07:41:15;101412.38;;;28.48;36.53
56400;BME280;42298;53.638;9.876;2023-05-22T07:43:42;101385.28;;;28.40;36.67
56400;BME280;42298;53.638;9.876;2023-05-22T07:46:09;101413.66;;;28.33;36.80
56400;BME280;42298;53.638;9.876;2023-05-22T07:48:35;101405.28;;;28.15;36.97
56400;BME280;42298;53.638;9.876;2023-05-22T07:51:00;101398.03;;;28.04;36.80
56400;BME280;42298;53.638;9.876;2023-05-22T07:53:28;101402.59;;;27.83;37.21
56400;BME280;42298;53.638;9.876;2023-05-22T07:55:53;101406.25;;;27.77;37.10
56400;BME280;42298;53.638;9.876;2023-05-22T07:58:18;101410.25;;;27.79;36.60
56400;BME280;42298;53.638;9.876;2023-05-22T08:00:44;101404.22;;;27.74;36.36
56400;BME280;42298;53.638;9.876;2023-05-22T08:03:09;101399.38;;;27.71;36.94
56400;BME280;42298;53.638;9.876;2023-05-22T08:05:35;101407.44;;;27.87;37.85
56400;BME280;42298;53.638;9.876;2023-05-22T08:08:00;101396.50;;;27.96;35.96
56400;BME280;42298;53.638;9.876;2023-05-22T08:10:27;101390.19;;;28.36;36.20
56400;BME280;42298;53.638;9.876;2023-05-22T08:12:53;101392.22;;;28.90;35.73
56400;BME280;42298;53.638;9.876;2023-05-22T08:15:19;101396.47;;;29.49;35.38
56400;BME280;42298;53.638;9.876;2023-05-22T08:17:44;101393.91;;;29.65;34.67
56400;BME280;42298;53.638;9.876;2023-05-22T08:20:10;101401.34;;;29.86;33.52
56400;BME280;42298;53.638;9.876;2023-05-22T08:22:37;101407.50;;;29.81;33.37
56400;BME280;42298;53.638;9.876;2023-05-22T08:25:06;101388.88;;;29.76;32.99
56400;BME280;42298;53.638;9.876;2023-05-22T08:27:32;101390.31;;;29.91;32.63
56400;BME280;42298;53.638;9.876;2023-05-22T08:29:57;101392.00;;;30.15;32.83
56400;BME280;42298;53.638;9.876;2023-05-22T08:32:24;101400.09;;;30.47;31.40
56400;BME280;42298;53.638;9.876;2023-05-22T08:34:50;101398.06;;;30.47;30.92
56400;BME280;42298;53.638;9.876;2023-05-22T08:37:15;101394.25;;;30.31;31.21
56400;BME280;42298;53.638;9.876;2023-05-22T08:39:40;101389.38;;;30.31;31.71
56400;BME280;42298;53.638;9.876;2023-05-22T08:42:06;101392.03;;;30.42;31.32
56400;BME280;42298;53.638;9.876;2023-05-22T08:44:32;101381.88;;;30.44;30.33
56400;BME280;42298;53.638;9.876;2023-05-22T08:46:59;101385.66;;;30.61;30.86
56400;BME280;42298;53.638;9.876;2023-05-22T08:49:26;101386.44;;;30.61;30.46
56400;BME280;42298;53.638;9.876;2023-05-22T08:51:55;101383.63;;;30.35;30.82
56400;BME280;42298;53.638;9.876;2023-05-22T08:54:25;101367.06;;;30.00;30.81
56400;BME280;42298;53.638;9.876;2023-05-22T08:56:52;101391.78;;;30.03;31.18
56400;BME280;42298;53.638;9.876;2023-05-22T08:59:18;101374.66;;;29.80;31.49
56400;BME280;42298;53.638;9.876;2023-05-22T09:01:44;101360.69;;;29.62;31.83
56400;BME280;42298;53.638;9.876;2023-05-22T09:04:11;101367.88;;;29.33;32.51
56400;BME280;42298;53.638;9.876;2023-05-22T09:06:36;101372.50;;;29.20;32.10
56400;BME280;42298;53.638;9.876;2023-05-22T09:09:02;101366.94;;;29.09;32.20
56400;BME280;42298;53.638;9.876;2023-05-22T09:11:29;101369.78;;;29.06;32.33
56400;BME280;42298;53.638;9.876;2023-05-22T09:14:08;101367.78;;;29.03;31.77
56400;BME280;42298;53.638;9.876;2023-05-22T09:16:43;101350.63;;;28.73;32.16
56400;BME280;42298;53.638;9.876;2023-05-22T09:19:10;101364.09;;;28.62;32.00
56400;BME280;42298;53.638;9.876;2023-05-22T09:21:36;101355.72;;;28.92;31.79
56400;BME280;42298;53.638;9.876;2023-05-22T09:24:02;101346.84;;;29.30;31.08
56400;BME280;42298;53.638;9.876;2023-05-22T09:26:27;101356.75;;;29.49;31.18
56400;BME280;42298;53.638;9.876;2023-05-22T09:28:54;101355.41;;;29.60;31.04
56400;BME280;42298;53.638;9.876;2023-05-22T09:31:22;101352.09;;;29.96;31.09
56400;BME280;42298;53.638;9.876;2023-05-22T09:33:48;101360.63;;;30.26;30.63
56400;BME280;42298;53.638;9.876;2023-05-22T09:36:13;101343.66;;;30.45;29.80
56400;BME280;42298;53.638;9.876;2023-05-22T09:38:39;101355.78;;;30.76;29.75
56400;BME280;42298;53.638;9.876;2023-05-22T09:41:04;101349.78;;;30.93;29.82
56400;BME280;42298;53.638;9.876;2023-05-22T09:43:30;101335.91;;;30.95;29.79
56400;BME280;42298;53.638;9.876;2023-05-22T09:46:00;101325.66;;;31.21;29.28
56400;BME280;42298;53.638;9.876;2023-05-22T09:48:26;101334.09;;;31.48;28.69
56400;BME280;42298;53.638;9.876;2023-05-22T09:50:54;101331.88;;;31.16;28.74
56400;BME280;42298;53.638;9.876;2023-05-22T09:53:25;101335.63;;;31.33;29.54
56400;BME280;42298;53.638;9.876;2023-05-22T09:55:52;101312.66;;;31.43;28.41
56400;BME280;42298;53.638;9.876;2023-05-22T09:58:19;101329.47;;;31.14;28.68
56400;BME280;42298;53.638;9.876;2023-05-22T10:00:47;101327.22;;;31.45;28.77
56400;BME280;42298;53.638;9.876;2023-05-22T10:03:14;101326.00;;;31.66;28.60
56400;BME280;42298;53.638;9.876;2023-05-22T10:05:53;101326.06;;;31.82;28.21
56400;BME280;42298;53.638;9.876;2023-05-22T10:08:28;101333.94;;;31.74;28.19
56400;BME280;42298;53.638;9.876;2023-05-22T10:10:56;101323.38;;;31.36;27.47
56400;BME280;42298;53.638;9.876;2023-05-22T10:13:23;101314.00;;;30.92;28.46
56400;BME280;42298;53.638;9.876;2023-05-22T10:15:49;101323.78;;;30.91;28.28
56400;BME280;42298;53.638;9.876;2023-05-22T10:18:17;101329.16;;;30.63;28.45
56400;BME280;42298;53.638;9.876;2023-05-22T10:20:43;101310.63;;;30.55;28.53
56400;BME280;42298;53.638;9.876;2023-05-22T10:23:10;101316.34;;;30.51;28.64
56400;BME280;42298;53.638;9.876;2023-05-22T10:25:39;101308.22;;;30.76;29.33
56400;BME280;42298;53.638;9.876;2023-05-22T10:28:05;101295.09;;;30.82;28.71
56400;BME280;42298;53.638;9.876;2023-05-22T10:30:40;101294.09;;;30.92;29.60
56400;BME280;42298;53.638;9.876;2023-05-22T10:33:23;101296.66;;;31.06;28.50
56400;BME280;42298;53.638;9.876;2023-05-22T10:35:57;101293.13;;;31.22;29.03
56400;BME280;42298;53.638;9.876;2023-05-22T10:41:25;101268.47;;;31.71;27.87
56400;BME280;42298;53.638;9.876;2023-05-22T10:43:51;101285.91;;;31.57;28.03
56400;BME280;42298;53.638;9.876;2023-05-22T10:46:18;101272.84;;;31.40;27.75
56400;BME280;42298;53.638;9.876;2023-05-22T10:48:46;101274.63;;;31.10;28.66
56400;BME280;42298;53.638;9.876;2023-05-22T10:51:13;101277.03;;;31.12;28.44
56400;BME280;42298;53.638;9.876;2023-05-22T10:53:42;101276.38;;;31.04;28.81
56400;BME280;42298;53.638;9.876;2023-05-22T10:58:55;101280.31;;;31.10;29.54
56400;BME280;42298;53.638;9.876;2023-05-22T11:01:24;101269.25;;;30.96;29.17
56400;BME280;42298;53.638;9.876;2023-05-22T11:06:31;101269.75;;;31.11;29.24
56400;BME280;42298;53.638;9.876;2023-05-22T11:08:57;101262.94;;;30.85;29.54
56400;BME280;42298;53.638;9.876;2023-05-22T11:11:26;101257.38;;;30.78;29.04
56400;BME280;42298;53.638;9.876;2023-05-22T11:14:01;101255.78;;;30.77;30.05
56400;BME280;42298;53.638;9.876;2023-05-22T11:16:32;101254.78;;;30.87;29.99
56400;BME280;42298;53.638;9.876;2023-05-22T11:19:06;101247.03;;;31.07;29.61
56400;BME280;42298;53.638;9.876;2023-05-22T11:21:42;101261.72;;;31.25;29.67
56400;BME280;42298;53.638;9.876;2023-05-22T11:24:09;101255.91;;;31.33;29.13
56400;BME280;42298;53.638;9.876;2023-05-22T11:26:34;101249.34;;;31.36;29.19
56400;BME280;42298;53.638;9.876;2023-05-22T11:29:00;101240.16;;;31.28;28.80
56400;BME280;42298;53.638;9.876;2023-05-22T11:31:26;101248.91;;;31.37;29.08
56400;BME280;42298;53.638;9.876;2023-05-22T11:33:53;101254.22;;;31.55;28.85
56400;BME280;42298;53.638;9.876;2023-05-22T11:36:19;101236.53;;;31.44;28.39
56400;BME280;42298;53.638;9.876;2023-05-22T11:38:45;101244.41;;;31.56;28.58
56400;BME280;42298;53.638;9.876;2023-05-22T11:41:13;101255.06;;;31.12;27.89
56400;BME280;42298;53.638;9.876;2023-05-22T11:43:41;101248.72;;;30.85;28.79
56400;BME280;42298;53.638;9.876;2023-05-22T11:46:08;101233.63;;;30.88;28.88
56400;BME280;42298;53.638;9.876;2023-05-22T11:48:38;101236.69;;;30.97;28.67
56400;BME280;42298;53.638;9.876;2023-05-22T11:51:04;101232.03;;;30.87;28.82
56400;BME280;42298;53.638;9.876;2023-05-22T11:53:34;101218.09;;;30.93;29.53
56400;BME280;42298;53.638;9.876;2023-05-22T11:56:04;101219.09;;;31.22;29.52
56400;BME280;42298;53.638;9.876;2023-05-22T11:58:31;101212.34;;;31.36;28.78
56400;BME280;42298;53.638;9.876;2023-05-22T12:01:01;101206.63;;;31.36;28.70
56400;BME280;42298;53.638;9.876;2023-05-22T12:03:28;101205.75;;;31.39;28.56
56400;BME280;42298;53.638;9.876;2023-05-22T12:05:55;101199.09;;;31.25;28.84
56400;BME280;42298;53.638;9.876;2023-05-22T12:08:20;101196.78;;;31.01;29.00
56400;BME280;42298;53.638;9.876;2023-05-22T12:10:51;101202.38;;;30.85;29.18
56400;BME280;42298;53.638;9.876;2023-05-22T12:13:26;101204.28;;;30.91;29.11
56400;BME280;42298;53.638;9.876;2023-05-22T12:15:53;101204.06;;;31.02;29.65
56400;BME280;42298;53.638;9.876;2023-05-22T12:18:20;101202.97;;;31.15;29.10
56400;BME280;42298;53.638;9.876;2023-05-22T12:20:46;101200.56;;;31.14;28.73
56400;BME280;42298;53.638;9.876;2023-05-22T12:23:26;101190.94;;;31.08;28.81
56400;BME280;42298;53.638;9.876;2023-05-22T12:26:02;101199.63;;;31.20;28.47
56400;BME280;42298;53.638;9.876;2023-05-22T12:28:30;101188.06;;;31.27;28.96
56400;BME280;42298;53.638;9.876;2023-05-22T12:30:57;101194.50;;;31.31;28.81
56400;BME280;42298;53.638;9.876;2023-05-22T12:33:30;101204.56;;;31.16;28.19
56400;BME280;42298;53.638;9.876;2023-05-22T12:35:59;101183.56;;;31.10;28.00
56400;BME280;42298;53.638;9.876;2023-05-22T12:38:31;101192.25;;;31.23;28.23
56400;BME280;42298;53.638;9.876;2023-05-22T12:40:56;101190.09;;;31.47;28.39
56400;BME280;42298;53.638;9.876;2023-05-22T12:43:22;101183.13;;;31.67;28.03
56400;BME280;42298;53.638;9.876;2023-05-22T12:45:51;101183.19;;;31.64;27.94
56400;BME280;42298;53.638;9.876;2023-05-22T12:48:16;101176.00;;;31.75;28.20
56400;BME280;42298;53.638;9.876;2023-05-22T12:50:44;101168.50;;;31.65;27.38
56400;BME280;42298;53.638;9.876;2023-05-22T12:53:10;101165.03;;;31.58;28.22
56400;BME280;42298;53.638;9.876;2023-05-22T12:55:37;101176.31;;;31.25;27.65
56400;BME280;42298;53.638;9.876;2023-05-22T12:58:02;101170.81;;;30.99;27.90
56400;BME280;42298;53.638;9.876;2023-05-22T13:00:29;101162.88;;;30.90;27.28
56400;BME280;42298;53.638;9.876;2023-05-22T13:02:55;101160.31;;;30.96;27.52
56400;BME280;42298;53.638;9.876;2023-05-22T13:05:20;101149.41;;;31.10;27.56
56400;BME280;42298;53.638;9.876;2023-05-22T13:07:46;101157.00;;;31.17;27.72